Time;durP1;ratioP1;P1;durP2;ratioP2;P2;SDS_P1;SDS_P2;PMS_P1;PMS_P2;Temp;Humidity;BMP_temperature;BMP_pressure;BME280_temperature;BME280_humidity;BME280_pressure;Samples;Min_cycle;Max_cycle;Signal;HPM_P1;HPM_P2
2023/09/22 00:00:16;;;;;;;6.03;3.53;;;;;;;14.18;100.00;99924.44;5051187;27;98225;-27
2023/09/22 00:02:43;;;;;;;7.60;3.53;;;;;;;14.14;100.00;99918.41;5032468;27;97137;-27
2023/09/22 00:05:10;;;;;;;9.90;3.70;;;;;;;14.11;100.00;99913.25;5032641;27;96627;-27
2023/09/22 00:07:36;;;;;;;7.68;4.05;;;;;;;14.14;100.00;99910.25;5050765;27;99229;-27
2023/09/22 00:10:03;;;;;;;7.53;3.65;;;;;;;14.08;100.00;99902.63;5032754;27;101653;-28
2023/09/22 00:12:29;;;;;;;5.80;3.35;;;;;;;14.11;100.00;99905.09;5032717;27;96888;-27
2023/09/22 00:14:54;;;;;;;6.85;3.97;;;;;;;14.10;100.00;99916.97;5051242;27;96759;-27
2023/09/22 00:17:20;;;;;;;6.18;3.83;;;;;;;14.13;100.00;99930.28;5032656;27;101043;-27
2023/09/22 00:19:45;;;;;;;9.27;5.00;;;;;;;14.08;100.00;99929.00;5051496;27;97484;-27
2023/09/22 00:22:10;;;;;;;7.80;4.47;;;;;;;14.08;100.00;99937.16;5050911;27;96606;-27
2023/09/22 00:24:36;;;;;;;8.45;4.45;;;;;;;14.09;100.00;99938.91;5051163;27;96816;-26
2023/09/22 00:27:01;;;;;;;10.35;4.38;;;;;;;14.09;100.00;99944.34;5050671;27;97449;-27
2023/09/22 00:29:27;;;;;;;6.10;3.45;;;;;;;14.03;100.00;99933.00;5050933;27;97343;-28
2023/09/22 00:31:52;;;;;;;7.63;4.53;;;;;;;13.95;100.00;99916.50;5050043;27;96713;-27
2023/09/22 00:34:17;;;;;;;10.30;3.88;;;;;;;14.05;100.00;99929.28;5050870;27;97093;-27
2023/09/22 00:36:43;;;;;;;10.85;4.40;;;;;;;14.01;100.00;99923.25;5050570;27;99006;-27
2023/09/22 00:39:09;;;;;;;8.13;4.60;;;;;;;13.96;99.94;99937.28;5050500;27;99297;-27
2023/09/22 00:41:34;;;;;;;7.13;4.05;;;;;;;13.92;100.00;99949.47;5051083;27;96651;-28
2023/09/22 00:44:00;;;;;;;8.70;4.07;;;;;;;13.91;100.00;99947.72;5050942;27;96821;-27
2023/09/22 00:46:26;;;;;;;8.02;4.68;;;;;;;13.90;100.00;99934.28;5009494;27;1179230;-27
2023/09/22 00:48:53;;;;;;;9.43;4.97;;;;;;;13.93;100.00;99937.56;5033697;27;101571;-27
2023/09/22 00:51:19;;;;;;;6.90;4.32;;;;;;;13.86;100.00;99947.28;5032943;27;96772;-27
2023/09/22 00:53:47;;;;;;;8.73;4.78;;;;;;;13.80;100.00;99948.69;5033836;27;96830;-27
2023/09/22 00:56:18;;;;;;;8.40;4.88;;;;;;;13.78;100.00;99953.41;5033690;27;101025;-27
2023/09/22 00:58:43;;;;;;;10.55;3.97;;;;;;;13.68;100.00;99941.63;5033664;27;101377;-28
2023/09/22 01:01:08;;;;;;;7.10;3.95;;;;;;;13.69;100.00;99935.19;5051873;27;96665;-26
2023/09/22 01:03:34;;;;;;;10.02;3.67;;;;;;;13.72;100.00;99934.03;5052014;27;96821;-27
2023/09/22 01:05:59;;;;;;;7.10;3.58;;;;;;;13.72;99.92;99934.03;5051955;27;97589;-27
2023/09/22 01:08:25;;;;;;;9.50;4.65;;;;;;;13.63;99.91;99932.13;5052384;27;97330;-27
2023/09/22 01:10:50;;;;;;;8.93;3.72;;;;;;;13.58;100.00;99927.97;5051928;27;96615;-27
2023/09/22 01:13:15;;;;;;;9.85;4.07;;;;;;;13.64;100.00;99934.75;5051658;27;96842;-27
2023/09/22 01:15:42;;;;;;;7.00;3.08;;;;;;;13.61;100.00;99921.41;5051396;27;98377;-27
2023/09/22 01:18:10;;;;;;;7.00;3.17;;;;;;;13.57;99.94;99922.69;5051509;27;99435;-28
2023/09/22 01:20:43;;;;;;;5.63;2.90;;;;;;;13.60;99.81;99925.97;5033522;27;96759;-28
2023/09/22 01:23:11;;;;;;;7.43;3.10;;;;;;;13.58;99.96;99917.06;5033542;27;96704;-27
2023/09/22 01:25:38;;;;;;;5.70;2.95;;;;;;;13.60;99.65;99911.50;5033269;27;99941;-26
2023/09/22 01:28:03;;;;;;;7.18;2.97;;;;;;;13.63;99.57;99913.09;5033275;27;100851;-27
2023/09/22 01:30:29;;;;;;;5.53;2.67;;;;;;;13.63;99.68;99924.84;5051706;27;96633;-27
2023/09/22 01:32:56;;;;;;;6.82;3.00;;;;;;;13.65;99.21;99905.66;5051603;27;96850;-26
2023/09/22 01:35:21;;;;;;;4.43;2.47;;;;;;;13.57;99.04;99898.19;5051662;27;97845;-27
2023/09/22 01:37:55;;;;;;;6.05;2.72;;;;;;;13.61;99.07;99907.81;5051258;27;99174;-27
2023/09/22 01:40:20;;;;;;;6.40;2.63;;;;;;;13.60;99.19;99901.47;5051396;27;96622;-27
2023/09/22 01:42:46;;;;;;;5.28;2.92;;;;;;;13.52;99.01;99906.75;5052700;27;96754;-27
2023/09/22 01:45:11;;;;;;;6.68;2.67;;;;;;;13.52;98.64;99905.91;5054225;27;99380;-27
2023/09/22 01:47:40;;;;;;;7.78;2.92;;;;;;;13.46;98.91;99890.13;5054799;27;97700;-27
2023/09/22 01:50:08;;;;;;;4.78;2.75;;;;;;;13.53;99.23;99908.47;5036507;27;96678;-27
2023/09/22 01:52:34;;;;;;;6.53;2.80;;;;;;;13.49;98.77;99907.03;5036503;27;96706;-27
2023/09/22 01:54:59;;;;;;;5.63;3.00;;;;;;;13.51;99.44;99893.28;5054752;27;97490;-27
2023/09/22 01:57:25;;;;;;;4.68;2.22;;;;;;;13.55;99.29;99898.31;5055396;27;97251;-27
2023/09/22 01:59:50;;;;;;;5.38;2.85;;;;;;;13.59;99.41;99902.50;5054680;27;96617;-27
2023/09/22 02:02:15;;;;;;;10.82;3.25;;;;;;;13.62;99.30;99897.78;5054751;27;96764;-27
2023/09/22 02:04:41;;;;;;;6.50;3.00;;;;;;;13.59;98.91;99894.31;5053833;27;98100;-28
2023/09/22 02:07:07;;;;;;;7.32;3.28;;;;;;;13.62;98.89;99892.34;5054548;27;97211;-27
2023/09/22 02:09:33;;;;;;;5.38;3.15;;;;;;;13.56;99.09;99891.00;5054661;27;96553;-27
2023/09/22 02:11:59;;;;;;;8.45;3.30;;;;;;;13.50;98.96;99887.00;5054369;27;96835;-27
2023/09/22 02:14:24;;;;;;;6.00;2.97;;;;;;;13.51;99.37;99894.13;5054337;27;98286;-28
2023/09/22 02:16:50;;;;;;;7.80;3.28;;;;;;;13.51;99.46;99905.03;5054354;27;97391;-27
2023/09/22 02:19:15;;;;;;;10.23;4.00;;;;;;;13.41;99.80;99898.69;5054442;27;96455;-27
2023/09/22 02:21:41;;;;;;;7.95;3.78;;;;;;;13.43;99.65;99901.28;5054828;27;96750;-27
2023/09/22 02:24:06;;;;;;;10.88;4.00;;;;;;;13.43;99.79;99891.25;5054103;27;99237;-27
2023/09/22 02:26:32;;;;;;;7.63;3.55;;;;;;;13.32;100.00;99883.16;5054471;27;97407;-27
2023/09/22 02:28:57;;;;;;;7.28;3.38;;;;;;;13.36;100.00;99896.38;5053993;27;96669;-27
2023/09/22 02:31:23;;;;;;;8.77;4.05;;;;;;;13.34;100.00;99898.34;5054069;27;96849;-27
2023/09/22 02:33:49;;;;;;;7.65;3.92;;;;;;;13.32;100.00;99891.34;5035501;27;100903;-28
2023/09/22 02:36:16;;;;;;;5.43;3.00;;;;;;;13.34;100.00;99892.06;5054118;27;97782;-27
2023/09/22 02:38:42;;;;;;;8.00;3.00;;;;;;;13.40;100.00;99887.97;5054292;27;96463;-27
2023/09/22 02:41:08;;;;;;;8.00;3.80;;;;;;;13.34;100.00;99901.06;5054212;27;96745;-27
2023/09/22 02:43:34;;;;;;;6.68;2.97;;;;;;;13.33;100.00;99893.94;5054108;27;97439;-27
2023/09/22 02:46:03;;;;;;;7.95;3.63;;;;;;;13.30;100.00;99891.50;5053489;27;99247;-28
2023/09/22 02:48:29;;;;;;;7.78;3.47;;;;;;;13.25;100.00;99890.13;5035483;27;96672;-27
2023/09/22 02:50:54;;;;;;;6.78;2.55;;;;;;;13.27;100.00;99886.28;5053909;27;96785;-28
2023/09/22 02:53:19;;;;;;;6.43;2.72;;;;;;;13.25;100.00;99890.13;5053349;27;97340;-27
2023/09/22 02:55:45;;;;;;;6.47;3.33;;;;;;;13.29;100.00;99899.78;5052973;27;97307;-29
2023/09/22 02:58:10;;;;;;;5.07;2.65;;;;;;;13.30;100.00;99896.94;5054035;27;96474;-27
2023/09/22 03:00:35;;;;;;;7.47;3.38;;;;;;;13.31;100.00;99897.78;5053713;27;96770;-27
2023/09/22 03:03:01;;;;;;;5.93;3.03;;;;;;;13.27;100.00;99889.03;5053655;27;98153;-28
2023/09/22 03:05:26;;;;;;;7.10;2.88;;;;;;;13.29;100.00;99900.63;5053309;27;99325;-27
2023/09/22 03:07:52;;;;;;;5.10;2.42;;;;;;;13.28;100.00;99903.50;5053681;27;96446;-28
2023/09/22 03:10:18;;;;;;;5.65;2.38;;;;;;;13.22;100.00;99888.53;5035600;27;96976;-27
2023/09/22 03:12:44;;;;;;;6.50;3.08;;;;;;;13.26;100.00;99903.59;5053556;27;97870;-27
2023/09/22 03:15:09;;;;;;;6.53;2.70;;;;;;;13.22;100.00;99901.28;5053242;27;99731;-27
2023/09/22 03:17:39;;;;;;;5.90;2.38;;;;;;;13.25;100.00;99906.44;5034771;27;96562;-26
2023/09/22 03:20:12;;;;;;;6.88;2.65;;;;;;;13.25;100.00;99901.00;5035085;27;96936;-27
2023/09/22 03:22:38;;;;;;;3.63;2.08;;;;;;;13.24;100.00;99908.31;5053078;27;99437;-27
2023/09/22 03:25:05;;;;;;;5.43;2.45;;;;;;;13.24;100.00;99904.72;5053423;27;97779;-27
2023/09/22 03:27:36;;;;;;;5.93;2.88;;;;;;;13.23;100.00;99903.00;5052893;27;96617;-27
2023/09/22 03:30:03;;;;;;;6.40;2.67;;;;;;;13.25;100.00;99898.28;5034944;27;96824;-27
2023/09/22 03:32:29;;;;;;;6.70;2.45;;;;;;;13.25;100.00;99891.00;5034587;27;102137;-27
2023/09/22 03:34:57;;;;;;;9.40;2.30;;;;;;;13.19;100.00;99880.66;5053436;27;99152;-27
2023/09/22 03:37:27;;;;;;;4.15;2.03;;;;;;;13.25;100.00;99890.13;5053356;27;96635;-27
2023/09/22 03:39:52;;;;;;;5.40;2.15;;;;;;;13.20;100.00;99884.22;5052949;27;96632;-27
2023/09/22 03:42:18;;;;;;;5.60;2.25;;;;;;;13.24;100.00;99885.69;5052345;27;97455;-27
2023/09/22 03:44:43;;;;;;;4.70;2.28;;;;;;;13.17;100.00;99867.19;5052418;27;97793;-27
2023/09/22 03:47:08;;;;;;;4.15;2.10;;;;;;;13.22;100.00;99868.66;5034827;27;96751;-27
2023/09/22 03:49:34;;;;;;;4.53;2.42;;;;;;;13.18;100.00;99870.78;5053260;27;96850;-27
2023/09/22 03:51:59;;;;;;;5.53;2.45;;;;;;;13.18;100.00;99878.94;5052900;27;98131;-27
2023/09/22 03:54:24;;;;;;;5.28;2.15;;;;;;;13.21;100.00;99877.81;5052540;27;99477;-27
2023/09/22 03:56:50;;;;;;;5.50;2.65;;;;;;;13.23;100.00;99883.94;5052747;27;96594;-27
2023/09/22 03:59:15;;;;;;;4.45;2.22;;;;;;;13.23;100.00;99878.50;5053072;27;96837;-27
2023/09/22 04:01:42;;;;;;;5.63;2.22;;;;;;;13.25;100.00;99888.28;5052721;27;98494;-28
2023/09/22 04:04:07;;;;;;;4.97;2.38;;;;;;;13.29;100.00;99891.63;5052455;27;99675;-27
2023/09/22 04:06:33;;;;;;;3.70;2.05;;;;;;;13.33;100.00;99890.34;5052031;27;96448;-27
2023/09/22 04:08:58;;;;;;;5.07;2.60;;;;;;;13.28;100.00;99870.88;5052469;27;96852;-27
2023/09/22 04:11:24;;;;;;;3.88;1.92;;;;;;;13.34;100.00;99886.63;5052129;27;99575;-27
2023/09/22 04:13:49;;;;;;;7.03;2.40;;;;;;;13.33;100.00;99884.91;5052629;27;97311;-27
2023/09/22 04:16:14;;;;;;;5.32;2.15;;;;;;;13.34;100.00;99892.91;5052847;27;96566;-27
2023/09/22 04:18:40;;;;;;;7.25;1.77;;;;;;;13.34;100.00;99882.03;5052734;27;96824;-27
2023/09/22 04:21:07;;;;;;;4.88;2.40;;;;;;;13.34;100.00;99895.63;5052385;27;99288;-27
2023/09/22 04:23:34;;;;;;;4.50;2.15;;;;;;;13.32;100.00;99885.91;5052614;27;99304;-27
2023/09/22 04:26:09;;;;;;;3.83;2.35;;;;;;;13.36;100.00;99893.66;5034040;27;96783;-27
2023/09/22 04:28:34;;;;;;;3.85;2.08;;;;;;;13.39;100.00;99895.22;5034156;27;96784;-27
2023/09/22 04:31:00;;;;;;;3.10;1.88;;;;;;;13.39;100.00;99892.50;5051944;27;97471;-27
2023/09/22 04:33:26;;;;;;;4.85;2.17;;;;;;;13.40;100.00;99894.25;5033624;27;100365;-27
2023/09/22 04:35:52;;;;;;;5.05;1.73;;;;;;;13.43;100.00;99906.72;5052151;27;96562;-27
2023/09/22 04:38:18;;;;;;;2.95;1.75;;;;;;;13.42;100.00;99908.59;5051949;27;96812;-27
2023/09/22 04:40:45;;;;;;;4.43;1.98;;;;;;;13.42;100.00;99896.81;5033821;27;101264;-27
2023/09/22 04:43:13;;;;;;;2.35;1.75;;;;;;;13.43;100.00;99902.13;5033822;27;101507;-27
2023/09/22 04:45:40;;;;;;;3.75;2.08;;;;;;;13.48;100.00;99908.03;5033437;27;96811;-26
2023/09/22 04:48:10;;;;;;;3.97;2.05;;;;;;;13.46;100.00;99904.56;5052728;27;96639;-27
2023/09/22 04:50:36;;;;;;;5.60;2.10;;;;;;;13.49;100.00;99908.88;5051761;27;98376;-28
2023/09/22 04:53:01;;;;;;;3.50;1.58;;;;;;;13.51;100.00;99904.16;5051817;27;99518;-27
2023/09/22 04:55:29;;;;;;;5.90;2.00;;;;;;;13.41;100.00;99895.97;5051523;27;96821;-27
2023/09/22 04:57:56;;;;;;;2.05;1.58;;;;;;;13.50;100.00;99911.47;5033782;27;96939;-27
2023/09/22 05:00:24;;;;;;;3.95;1.85;;;;;;;13.45;100.00;99911.03;5033524;27;99180;-27
2023/09/22 05:02:52;;;;;;;5.22;1.52;;;;;;;13.47;100.00;99903.59;5033608;27;101196;-27
2023/09/22 05:05:18;;;;;;;3.08;1.83;;;;;;;13.49;100.00;99911.59;5033413;27;96912;-27
2023/09/22 05:07:44;;;;;;;2.70;1.48;;;;;;;13.50;100.00;99916.06;5051830;27;96853;-27
2023/09/22 05:10:10;;;;;;;3.13;1.63;;;;;;;13.52;100.00;99920.38;5051816;27;97438;-27
2023/09/22 05:12:38;;;;;;;2.92;1.80;;;;;;;13.53;100.00;99923.94;5052291;27;97813;-28
2023/09/22 05:15:04;;;;;;;3.33;1.15;;;;;;;13.51;100.00;99920.50;5051994;27;96477;-28
2023/09/22 05:17:30;;;;;;;2.20;1.50;;;;;;;13.52;100.00;99928.53;5034087;27;96866;-27
2023/09/22 05:19:56;;;;;;;3.47;1.65;;;;;;;13.52;100.00;99927.66;5054193;27;99602;-27
2023/09/22 05:22:22;;;;;;;2.35;1.80;;;;;;;13.50;100.00;99930.50;5055272;27;97852;-27
2023/09/22 05:24:48;;;;;;;2.40;1.45;;;;;;;13.50;100.00;99946.84;5036915;27;96590;-27
2023/09/22 05:27:14;;;;;;;2.35;1.52;;;;;;;13.51;99.77;99940.38;5055582;27;96842;-27
2023/09/22 05:29:41;;;;;;;4.45;1.80;;;;;;;13.48;99.87;99934.38;5054977;27;99464;-27
2023/09/22 05:32:06;;;;;;;2.20;1.35;;;;;;;13.48;99.91;99935.22;5036609;27;100819;-27
2023/09/22 05:34:33;;;;;;;1.88;1.30;;;;;;;13.48;99.51;99937.94;5055278;27;96721;-28
2023/09/22 05:37:00;;;;;;;1.55;1.10;;;;;;;13.48;99.44;99931.66;5037236;27;96509;-27
2023/09/22 05:39:26;;;;;;;2.03;1.33;;;;;;;13.46;99.90;99930.91;5054785;27;99541;-27
2023/09/22 05:41:51;;;;;;;1.85;1.38;;;;;;;13.48;99.78;99948.84;5055047;27;96816;-27
2023/09/22 05:44:17;;;;;;;2.38;1.35;;;;;;;13.49;99.72;99942.41;5054640;27;96492;-27
2023/09/22 05:46:43;;;;;;;5.53;1.70;;;;;;;13.50;99.56;99945.97;5054823;27;96771;-27
2023/09/22 05:49:14;;;;;;;2.17;1.17;;;;;;;13.48;99.50;99943.38;5036343;27;101098;-27
2023/09/22 05:51:39;;;;;;;1.27;1.10;;;;;;;13.44;99.22;99943.78;5054715;27;98952;-27
2023/09/22 05:54:06;;;;;;;2.65;1.00;;;;;;;13.48;98.96;99943.38;5055091;27;96748;-28
2023/09/22 05:56:31;;;;;;;1.50;1.15;;;;;;;13.45;98.81;99949.09;5054919;27;96751;-27
2023/09/22 05:58:56;;;;;;;1.55;0.85;;;;;;;13.46;98.43;99949.97;5054593;27;99579;-27
2023/09/22 06:01:22;;;;;;;2.67;1.23;;;;;;;13.50;98.55;99960.44;5055169;27;97750;-26
2023/09/22 06:03:47;;;;;;;2.08;1.27;;;;;;;13.49;98.47;99955.13;5054512;27;96634;-27
2023/09/22 06:06:15;;;;;;;2.72;1.02;;;;;;;13.48;98.03;99951.56;5054913;27;96867;-28
2023/09/22 06:08:43;;;;;;;1.60;0.75;;;;;;;13.47;97.59;99951.72;5053950;27;99572;-28
2023/09/22 06:11:09;;;;;;;1.73;1.00;;;;;;;13.49;97.10;99964.19;5035949;27;98968;-27
2023/09/22 06:13:36;;;;;;;1.55;0.88;;;;;;;13.46;96.81;99967.13;5054783;27;97096;-27
2023/09/22 06:16:02;;;;;;;1.75;0.98;;;;;;;13.41;96.50;99958.53;5036221;27;96847;-27
2023/09/22 06:18:28;;;;;;;1.90;1.10;;;;;;;13.45;96.74;99973.59;5035702;27;101107;-27
2023/09/22 06:20:57;;;;;;;0.82;0.80;;;;;;;13.37;96.07;99960.69;5054211;27;99479;-26
2023/09/22 06:23:24;;;;;;;1.23;0.68;;;;;;;13.38;95.86;99967.81;5036048;27;96649;-27
2023/09/22 06:25:56;;;;;;;1.10;0.77;;;;;;;13.36;96.71;99958.06;5036464;27;96823;-27
2023/09/22 06:28:22;;;;;;;1.20;0.90;;;;;;;13.37;96.39;99960.69;5035814;27;100927;-27
2023/09/22 06:30:49;;;;;;;1.30;0.75;;;;;;;13.38;96.00;99969.69;5054468;27;97311;-27
2023/09/22 06:33:19;;;;;;;0.85;0.57;;;;;;;13.40;96.35;99975.88;5035108;27;97745;-27
2023/09/22 06:35:46;;;;;;;0.88;0.80;;;;;;;13.38;96.21;99975.13;5054125;27;96670;-28
2023/09/22 06:38:12;;;;;;;7.13;0.75;;;;;;;13.41;96.06;99972.13;5035550;27;100887;-27
2023/09/22 06:40:37;;;;;;;2.55;0.60;;;;;;;13.42;95.55;99973.88;5053810;27;98709;-26
2023/09/22 06:43:08;;;;;;;2.65;0.85;;;;;;;13.42;95.88;99981.16;5054251;27;96590;-28
2023/09/22 06:45:37;;;;;;;1.15;0.70;;;;;;;13.40;95.98;99984.03;5053178;27;96851;-27
2023/09/22 06:48:05;;;;;;;1.15;0.73;;;;;;;13.40;95.80;99975.88;5035411;27;101391;-27
2023/09/22 06:50:34;;;;;;;1.15;0.68;;;;;;;13.46;95.75;99993.50;5035700;27;98899;-27
2023/09/22 06:52:59;;;;;;;1.48;0.95;;;;;;;13.55;95.95;100003.56;5035714;27;96547;-27
2023/09/22 06:55:25;;;;;;;1.25;0.70;;;;;;;13.51;95.97;100002.13;5053918;27;96917;-27
2023/09/22 06:57:52;;;;;;;0.63;0.40;;;;;;;13.51;94.91;100005.69;5034819;27;101212;-27
2023/09/22 07:00:18;;;;;;;0.88;0.47;;;;;;;13.53;94.03;100011.00;5035262;27;100842;-27
2023/09/22 07:02:47;;;;;;;0.93;0.50;;;;;;;13.49;94.22;100007.72;5053557;27;96517;-27
2023/09/22 07:05:16;;;;;;;1.20;0.50;;;;;;;13.55;94.62;100015.31;5035157;27;96850;-27
2023/09/22 07:07:42;;;;;;;1.10;0.60;;;;;;;13.58;95.20;100020.47;5035142;27;98969;-27
2023/09/22 07:10:10;;;;;;;0.77;0.65;;;;;;;13.57;95.39;100017.91;5053632;27;97796;-28
2023/09/22 07:12:39;;;;;;;2.00;0.55;;;;;;;13.60;94.81;100018.50;5035245;27;96672;-28
2023/09/22 07:15:06;;;;;;;0.80;0.57;;;;;;;13.58;93.82;100022.34;5053844;27;96844;-27
2023/09/22 07:17:33;;;;;;;0.98;0.60;;;;;;;13.56;94.00;100021.63;5035044;27;100959;-27
2023/09/22 07:19:59;;;;;;;1.02;0.70;;;;;;;13.52;93.45;100023.75;5034926;27;101261;-27
2023/09/22 07:22:24;;;;;;;1.25;0.73;;;;;;;13.52;94.10;100031.06;5052848;27;96443;-27
2023/09/22 07:24:52;;;;;;;0.77;0.70;;;;;;;13.53;94.57;100039.06;5053574;27;96364;-27
2023/09/22 07:27:18;;;;;;;0.90;0.45;;;;;;;13.58;94.02;100044.97;5053357;27;97556;-27
2023/09/22 07:29:44;;;;;;;2.08;1.35;;;;;;;13.59;94.13;100043.13;5053021;27;97685;-27
2023/09/22 07:32:09;;;;;;;2.65;0.68;;;;;;;13.61;94.31;100046.59;5053145;27;96512;-27
2023/09/22 07:34:34;;;;;;;0.55;0.45;;;;;;;13.65;94.14;100048.03;5053082;27;96956;-27
2023/09/22 07:37:00;;;;;;;5.10;0.55;;;;;;;13.70;94.09;100051.19;5053156;27;97449;-27
2023/09/22 07:39:25;;;;;;;0.82;0.55;;;;;;;13.73;93.83;100052.78;5053277;27;99249;-28
2023/09/22 07:41:51;;;;;;;0.75;0.38;;;;;;;13.71;93.38;100054.81;5052711;27;96594;-27
2023/09/22 07:44:21;;;;;;;2.10;0.47;;;;;;;13.73;93.75;100047.34;5053003;27;96874;-28
2023/09/22 07:46:49;;;;;;;1.02;0.60;;;;;;;13.77;93.32;100056.97;5052264;27;98972;-27
2023/09/22 07:49:15;;;;;;;8.05;0.90;;;;;;;13.84;93.51;100052.72;5052935;27;97974;-28
2023/09/22 07:51:41;;;;;;;1.77;0.80;;;;;;;13.86;92.98;100058.03;5053046;27;96634;-27
2023/09/22 07:54:08;;;;;;;0.75;0.73;;;;;;;13.84;92.58;100062.75;5034473;27;96815;-27
2023/09/22 07:56:34;;;;;;;3.92;0.90;;;;;;;13.83;93.05;100061.91;5034485;27;101031;-27
2023/09/22 07:58:59;;;;;;;3.95;0.75;;;;;;;13.86;92.73;100066.22;5052938;27;97915;-27
2023/09/22 08:01:25;;;;;;;1.88;0.90;;;;;;;13.80;91.79;100070.34;5053019;27;96561;-27
2023/09/22 08:03:51;;;;;;;0.90;0.70;;;;;;;13.89;92.88;100083.13;5052836;27;96922;-27
2023/09/22 08:06:17;;;;;;;5.75;0.90;;;;;;;13.99;92.48;100086.78;5052455;27;99688;-27
2023/09/22 08:08:42;;;;;;;0.68;0.57;;;;;;;14.14;92.12;100083.69;5052357;27;99073;-26
2023/09/22 08:11:08;;;;;;;1.35;0.80;;;;;;;14.26;91.16;100079.00;5052064;27;96623;-27
2023/09/22 08:13:36;;;;;;;1.23;0.82;;;;;;;14.28;90.33;100072.44;5034491;27;96948;-27
2023/09/22 08:16:07;;;;;;;1.35;0.77;;;;;;;14.24;89.48;100081.88;5034165;27;100926;-27
2023/09/22 08:18:37;;;;;;;0.80;0.70;;;;;;;14.25;90.16;100099.91;5034136;27;99879;-27
2023/09/22 08:21:07;;;;;;;1.95;0.70;;;;;;;14.26;90.19;100095.38;5034211;27;96627;-29
2023/09/22 08:23:33;;;;;;;1.00;0.80;;;;;;;14.45;90.20;100099.00;5034356;27;96751;-27
2023/09/22 08:25:58;;;;;;;0.73;0.70;;;;;;;14.57;89.15;100090.78;5052200;27;98971;-27
2023/09/22 08:28:25;;;;;;;1.45;0.80;;;;;;;14.61;88.80;100084.91;5052884;27;97837;-27
2023/09/22 08:30:55;;;;;;;2.63;1.15;;;;;;;15.01;88.48;100088.53;5052404;27;96479;-28
2023/09/22 08:33:21;;;;;;;1.38;0.98;;;;;;;15.22;85.89;100091.16;5033944;27;96950;-27
2023/09/22 08:35:49;;;;;;;0.98;0.85;;;;;;;15.47;84.46;100108.84;5051716;27;97308;-27
2023/09/22 08:38:14;;;;;;;0.70;0.55;;;;;;;15.46;84.27;100109.81;5052346;27;98289;-26
2023/09/22 08:40:40;;;;;;;1.33;0.88;;;;;;;15.34;85.28;100108.25;5052446;27;96561;-27
2023/09/22 08:43:08;;;;;;;2.45;1.30;;;;;;;15.30;85.79;100126.75;5052704;27;96759;-27
2023/09/22 08:45:35;;;;;;;2.47;0.85;;;;;;;15.28;85.31;100126.91;5021254;28;100789;-28
2023/09/22 08:48:01;;;;;;;0.80;0.52;;;;;;;15.24;84.15;100117.28;5010160;28;100873;-27
2023/09/22 08:50:26;;;;;;;0.73;0.50;;;;;;;15.44;84.87;100120.88;5011518;28;96685;-27
2023/09/22 08:52:52;;;;;;;0.43;0.40;;;;;;;15.57;83.55;100125.19;5013741;28;96753;-29
2023/09/22 08:55:18;;;;;;;1.00;0.80;;;;;;;15.65;82.83;100123.44;5015454;28;97893;-26
2023/09/22 08:57:45;;;;;;;0.77;0.52;;;;;;;15.73;83.22;100121.91;5013783;28;101437;-27
2023/09/22 09:00:19;;;;;;;1.13;0.70;;;;;;;15.86;82.53;100127.94;5013507;28;97295;-27
2023/09/22 09:02:46;;;;;;;1.30;0.95;;;;;;;15.90;82.72;100135.69;5015472;28;96564;-27
2023/09/22 09:05:28;;;;;;;2.70;0.95;;;;;;;16.02;83.60;100141.00;5013239;28;100927;-27
2023/09/22 09:07:55;;;;;;;0.98;0.65;;;;;;;16.17;82.25;100127.72;5013659;28;100685;-27
2023/09/22 09:10:34;;;;;;;1.23;0.55;;;;;;;16.37;82.87;100136.69;5013627;28;96752;-27
2023/09/22 09:13:04;;;;;;;1.00;0.60;;;;;;;16.30;80.53;100141.91;5013761;28;96733;-27
2023/09/22 09:15:40;;;;;;;0.68;0.57;;;;;;;16.33;80.68;100136.16;5013516;28;99045;-27
2023/09/22 09:18:07;;;;;;;0.82;0.47;;;;;;;16.60;80.74;100146.25;5013969;28;100916;-27
2023/09/22 09:20:35;;;;;;;0.93;0.60;;;;;;;16.77;78.85;100145.44;5014953;28;96606;-27
2023/09/22 09:23:31;;;;;;;0.40;0.40;;;;;;;16.95;79.63;100144.69;5013519;28;96875;-27
2023/09/22 09:25:56;;;;;;;1.45;0.77;;;;;;;17.08;77.67;100142.41;5000501;28;98083;-27
2023/09/22 09:28:23;;;;;;;3.45;0.70;;;;;;;17.10;78.89;100147.75;5014837;28;97778;-27
2023/09/22 09:30:51;;;;;;;0.93;0.63;;;;;;;17.01;78.45;100144.03;5013448;28;96584;-27
2023/09/22 09:33:20;;;;;;;1.58;0.50;;;;;;;17.05;76.67;100148.19;5014327;28;96835;-28
2023/09/22 09:35:45;;;;;;;1.08;0.47;;;;;;;17.23;77.59;100142.75;5014587;28;99338;-27
2023/09/22 09:38:12;;;;;;;0.95;0.45;;;;;;;17.35;76.89;100168.91;5014396;28;99415;-27
2023/09/22 09:40:38;;;;;;;0.70;0.40;;;;;;;17.30;77.60;100160.25;5013221;28;96583;-27
2023/09/22 09:43:11;;;;;;;1.80;0.60;;;;;;;17.23;76.40;100159.16;5013640;28;96877;-27
2023/09/22 09:45:57;;;;;;;0.47;0.30;;;;;;;17.32;77.35;100158.22;5032618;27;97623;-27
2023/09/22 09:48:24;;;;;;;0.35;0.20;;;;;;;17.46;78.09;100150.50;5054722;27;98805;-27
2023/09/22 09:50:57;;;;;;;1.00;0.30;;;;;;;17.39;76.69;100153.84;5035832;27;96937;-27
2023/09/22 09:53:31;;;;;;;0.90;0.52;;;;;;;17.54;77.31;100164.25;5054819;27;97283;-27
2023/09/22 09:56:02;;;;;;;0.65;0.32;;;;;;;17.66;77.66;100164.91;5054592;27;97482;-27
2023/09/22 09:58:30;;;;;;;1.20;0.35;;;;;;;17.73;76.49;100172.34;5054752;27;99115;-27
2023/09/22 10:00:57;;;;;;;0.88;0.50;;;;;;;17.47;74.02;100166.78;5036456;27;96875;-27
2023/09/22 10:03:25;;;;;;;0.40;0.30;;;;;;;17.15;74.53;100178.25;5035658;27;96949;-27
2023/09/22 10:05:52;;;;;;;2.50;0.47;;;;;;;17.02;77.06;100164.06;5036131;27;100921;-27
2023/09/22 10:08:23;;;;;;;0.50;0.30;;;;;;;16.93;75.69;100174.91;5036608;27;100951;-27
2023/09/22 10:10:52;;;;;;;0.30;0.20;;;;;;;16.80;75.92;100177.13;5036360;27;96564;-26
2023/09/22 10:13:17;;;;;;;0.47;0.25;;;;;;;16.63;76.82;100178.75;5036263;27;96966;-30
2023/09/22 10:15:59;;;;;;;1.00;0.32;;;;;;;16.63;77.45;100176.00;5053476;27;99823;-27
2023/09/22 10:18:46;;;;;;;0.82;0.30;;;;;;;16.63;78.58;100183.38;5035911;27;101215;-27
2023/09/22 10:21:30;;;;;;;0.70;0.20;;;;;;;16.63;77.74;100186.09;5036181;27;96674;-27
2023/09/22 10:24:25;;;;;;;1.02;0.43;;;;;;;17.14;75.99;100180.13;5054482;27;96825;-27
2023/09/22 10:26:53;;;;;;;1.50;0.50;;;;;;;17.26;75.45;100188.13;5035855;27;100828;-27
2023/09/22 10:29:34;;;;;;;0.43;0.32;;;;;;;17.11;75.63;100185.03;5054077;27;99146;-27
2023/09/22 10:32:15;;;;;;;2.25;0.52;;;;;;;17.03;75.74;100187.69;5035923;27;96648;-27
2023/09/22 10:34:47;;;;;;;0.15;0.15;;;;;;;17.19;75.72;100190.63;5054241;27;96887;-27
2023/09/22 10:37:12;;;;;;;0.15;0.15;;;;;;;17.08;75.26;100185.34;5035779;27;101006;-27
2023/09/22 10:39:56;;;;;;;1.75;0.30;;;;;;;17.03;75.14;100194.00;5035679;27;100839;-27
2023/09/22 10:42:23;;;;;;;0.60;0.20;;;;;;;16.97;74.66;100191.88;5035244;27;96586;-27
2023/09/22 10:44:56;;;;;;;0.75;0.40;;;;;;;17.02;76.14;100186.81;5035139;27;97861;-29
2023/09/22 10:47:22;;;;;;;1.92;0.40;;;;;;;16.96;76.17;100190.16;5035462;27;101416;-27
2023/09/22 10:49:48;;;;;;;0.75;0.32;;;;;;;16.93;76.54;100187.75;5053799;27;99480;-27
2023/09/22 10:52:17;;;;;;;1.15;0.43;;;;;;;17.02;76.06;100186.81;5035725;27;96570;-27
2023/09/22 10:54:43;;;;;;;0.63;0.20;;;;;;;17.53;73.25;100187.19;5035664;27;97035;-27
2023/09/22 10:57:22;;;;;;;1.33;0.50;;;;;;;17.94;72.41;100185.72;5053455;27;99462;-27
2023/09/22 10:59:47;;;;;;;1.45;0.52;;;;;;;17.82;72.68;100179.63;5035814;27;100969;-27
2023/09/22 11:02:21;;;;;;;0.22;0.22;;;;;;;18.05;71.62;100179.16;5054083;27;96450;-27
2023/09/22 11:04:48;;;;;;;2.95;0.45;;;;;;;18.64;72.42;100191.19;5035110;27;96869;-27
2023/09/22 11:07:30;;;;;;;1.85;0.40;;;;;;;19.17;69.65;100182.88;5034725;27;101015;-26
2023/09/22 11:09:55;;;;;;;0.70;0.50;;;;;;;19.19;67.03;100178.09;5035170;27;101035;-29
2023/09/22 11:12:20;;;;;;;2.65;0.80;;;;;;;19.33;66.51;100187.53;5053807;27;96508;-26
2023/09/22 11:14:46;;;;;;;0.57;0.28;;;;;;;19.06;66.48;100184.03;5053160;27;96645;-28
2023/09/22 11:17:12;;;;;;;1.50;0.38;;;;;;;18.87;66.62;100198.88;5034804;27;101095;-28
2023/09/22 11:19:53;;;;;;;1.05;0.47;;;;;;;18.64;68.18;100195.81;5053565;27;97785;-28
2023/09/22 11:22:18;;;;;;;0.90;0.57;;;;;;;18.42;69.38;100187.13;5035244;27;96575;-29
2023/09/22 11:24:45;;;;;;;0.50;0.40;;;;;;;18.38;69.15;100190.34;5053673;27;96836;-27
2023/09/22 11:27:11;;;;;;;1.90;0.50;;;;;;;18.24;69.66;100203.63;5034890;27;101056;-27